Time;durP1;ratioP1;P1;durP2;ratioP2;P2;SDS_P1;SDS_P2;PMS_P1;PMS_P2;Temp;Humidity;BMP_temperature;BMP_pressure;BME280_temperature;BME280_humidity;BME280_pressure;Samples;Min_cycle;Max_cycle;Signal;HPM_P1;HPM_P2
2023/01/05 00:00:20;;;;;;;26.10;7.28;;;;;;;10.64;100.00;101636.13;5316877;27;20027;-83
2023/01/05 00:02:51;;;;;;;29.45;5.70;;;;;;;10.64;100.00;101662.81;5341553;27;20134;-83
2023/01/05 00:05:22;;;;;;;29.38;5.75;;;;;;;10.64;100.00;101640.59;5342495;27;20043;-83
2023/01/05 00:07:53;;;;;;;28.45;5.47;;;;;;;10.57;100.00;101638.44;5340932;27;20499;-83
2023/01/05 00:24:41;;;;;;;32.20;6.70;;;;;;;10.29;100.00;101639.75;5340445;27;20127;-83
2023/01/05 00:27:12;;;;;;;35.35;6.03;;;;;;;10.22;100.00;101643.88;5313844;27;20618;-83
2023/01/05 00:29:43;;;;;;;32.70;6.28;;;;;;;10.17;100.00;101657.56;5319930;27;20112;-83
2023/01/05 00:32:14;;;;;;;26.92;6.18;;;;;;;10.14;100.00;101652.44;5319288;27;20040;-83
2023/01/05 00:34:46;;;;;;;39.42;8.38;;;;;;;10.17;100.00;101646.88;5337702;27;20027;-83
2023/01/05 00:37:17;;;;;;;28.20;7.35;;;;;;;10.17;100.00;101651.38;5317430;27;20062;-83
2023/01/05 00:39:49;;;;;;;26.27;4.88;;;;;;;10.08;100.00;101647.63;5337393;27;20055;-83
2023/01/05 00:42:21;;;;;;;30.35;6.18;;;;;;;10.07;100.00;101642.41;5317880;27;20106;-83
2023/01/05 00:44:52;;;;;;;29.55;5.53;;;;;;;10.01;100.00;101657.03;5340222;27;20028;-83
2023/01/05 00:47:24;;;;;;;27.67;6.47;;;;;;;9.94;100.00;101662.00;5341076;27;20019;-83
2023/01/05 00:49:55;;;;;;;32.53;6.78;;;;;;;9.93;100.00;101654.97;5337228;27;20028;-82
2023/01/05 00:52:26;;;;;;;33.67;6.45;;;;;;;9.92;100.00;101661.28;5317888;27;20074;-82
2023/01/05 00:54:58;;;;;;;33.42;6.18;;;;;;;9.90;100.00;101663.19;5334537;27;20111;-83
2023/01/05 00:57:29;;;;;;;28.13;5.35;;;;;;;9.78;100.00;101650.81;5336919;27;20016;-83
2023/01/05 01:00:02;;;;;;;26.25;5.22;;;;;;;9.75;100.00;101656.41;5334887;27;20163;-83
2023/01/05 01:02:33;;;;;;;29.40;5.43;;;;;;;9.79;100.00;101657.84;5333923;27;20046;-82
2023/01/05 01:05:05;;;;;;;35.90;6.25;;;;;;;9.69;100.00;101667.50;5312620;27;20044;-83
2023/01/05 01:07:37;;;;;;;36.33;6.88;;;;;;;9.67;100.00;101666.78;5333404;27;20055;-82
2023/01/05 01:10:10;;;;;;;28.23;4.70;;;;;;;9.60;100.00;101667.22;5334302;27;20058;-82
2023/01/05 01:12:41;;;;;;;31.38;5.72;;;;;;;9.53;100.00;101666.00;5311543;27;20095;-83
2023/01/05 01:15:12;;;;;;;28.70;5.68;;;;;;;9.49;100.00;101669.88;5335204;27;20032;-83
2023/01/05 01:17:44;;;;;;;34.22;6.35;;;;;;;9.42;100.00;101666.81;5336454;27;20535;-83
2023/01/05 01:20:16;;;;;;;24.50;6.10;;;;;;;9.44;100.00;101678.19;5332118;27;20031;-83
2023/01/05 01:22:47;;;;;;;30.50;5.55;;;;;;;9.40;100.00;101671.41;5349529;27;20106;-83
2023/01/05 01:25:18;;;;;;;29.55;5.90;;;;;;;9.43;100.00;101680.97;5352577;27;20126;-83
2023/01/05 01:27:50;;;;;;;30.88;5.78;;;;;;;9.42;100.00;101690.78;5347649;27;20511;-83
2023/01/05 01:30:21;;;;;;;33.97;6.45;;;;;;;9.34;100.00;101686.97;5351925;27;20024;-82
2023/01/05 01:32:52;;;;;;;27.95;5.40;;;;;;;9.30;100.00;101690.84;5350924;27;20024;-82
2023/01/05 01:35:24;;;;;;;33.35;6.15;;;;;;;9.21;100.00;101687.88;5349154;27;20027;-82
2023/01/05 01:37:55;;;;;;;34.47;7.25;;;;;;;9.22;100.00;101694.91;5352105;27;20198;-82
2023/01/05 01:40:26;;;;;;;41.38;8.40;;;;;;;9.28;100.00;101699.78;5351795;27;20471;-83
2023/01/05 01:42:57;;;;;;;37.50;6.63;;;;;;;9.32;100.00;101697.72;5358638;27;20181;-82
2023/01/05 01:45:29;;;;;;;32.80;5.97;;;;;;;9.37;100.00;101694.75;5352137;27;20031;-82
2023/01/05 01:48:00;;;;;;;37.40;6.88;;;;;;;9.41;100.00;101698.88;5347550;27;20430;-82
2023/01/05 01:50:35;;;;;;;29.75;6.25;;;;;;;9.40;100.00;101706.00;5355179;27;20410;-82
2023/01/05 01:53:27;;;;;;;34.50;6.30;;;;;;;9.50;100.00;101708.81;5350425;27;20027;-82
2023/01/05 01:56:02;;;;;;;29.98;6.07;;;;;;;9.49;100.00;101707.16;5347814;27;20032;-82
2023/01/05 01:58:33;;;;;;;30.80;5.18;;;;;;;9.45;100.00;101706.53;5355737;27;20027;-82
2023/01/05 02:01:04;;;;;;;31.00;5.60;;;;;;;9.52;100.00;101711.38;5358461;27;20020;-83
2023/01/05 02:03:37;;;;;;;34.20;5.88;;;;;;;9.48;100.00;101707.25;5352325;27;20123;-82
2023/01/05 02:06:09;;;;;;;31.58;5.70;;;;;;;9.49;100.00;101711.63;5355750;27;20039;-82
2023/01/05 02:08:41;;;;;;;29.83;6.75;;;;;;;9.51;100.00;101710.53;5359298;27;20555;-83
2023/01/05 02:11:30;;;;;;;29.85;6.65;;;;;;;9.57;100.00;101711.88;5353145;27;20032;-83
2023/01/05 02:14:31;;;;;;;35.92;5.60;;;;;;;9.60;100.00;101714.31;5354901;27;20041;-83
2023/01/05 02:17:11;;;;;;;30.90;6.53;;;;;;;9.64;100.00;101716.66;5358651;27;20031;-82
2023/01/05 02:19:54;;;;;;;26.45;5.35;;;;;;;9.60;100.00;101714.31;5354690;27;20040;-82
2023/01/05 02:22:47;;;;;;;33.60;6.03;;;;;;;9.61;100.00;101711.56;5353219;27;20368;-82
2023/01/05 02:25:39;;;;;;;35.00;6.80;;;;;;;9.70;100.00;101717.16;5355773;27;20035;-82
2023/01/05 02:28:27;;;;;;;25.95;5.80;;;;;;;9.75;100.00;101717.69;5359302;27;20771;-83
2023/01/05 02:31:14;;;;;;;32.72;6.78;;;;;;;9.84;100.00;101720.47;5360088;27;20066;-82
2023/01/05 02:33:54;;;;;;;34.90;6.85;;;;;;;9.87;100.00;101721.19;5358911;27;20046;-82
2023/01/05 02:36:32;;;;;;;34.08;6.57;;;;;;;9.89;100.00;101720.13;5360118;27;20035;-83
2023/01/05 02:39:14;;;;;;;32.47;5.93;;;;;;;9.93;100.00;101729.59;5354036;27;20034;-82
2023/01/05 02:41:59;;;;;;;32.20;5.90;;;;;;;10.00;100.00;101725.47;5358489;27;20032;-82
2023/01/05 02:44:32;;;;;;;31.27;5.85;;;;;;;10.01;100.00;101721.88;5357401;27;20532;-83
2023/01/05 02:47:28;;;;;;;26.38;6.30;;;;;;;10.02;100.00;101722.72;5352207;27;20024;-83
2023/01/05 02:50:05;;;;;;;32.05;6.32;;;;;;;10.10;100.00;101725.66;5332292;27;20066;-82
2023/01/05 02:52:42;;;;;;;33.58;6.53;;;;;;;10.09;100.00;101726.59;5355800;27;20020;-82
2023/01/05 02:55:20;;;;;;;35.88;5.97;;;;;;;10.11;100.00;101727.31;5352893;27;20028;-83
2023/01/05 02:58:00;;;;;;;30.52;6.63;;;;;;;10.13;100.00;101724.53;5356240;27;20035;-82
2023/01/05 03:00:40;;;;;;;30.88;5.60;;;;;;;10.09;100.00;101718.59;5357502;27;20031;-83
2023/01/05 03:03:24;;;;;;;28.38;6.50;;;;;;;10.14;100.00;101729.75;5351168;27;20038;-83
2023/01/05 03:06:02;;;;;;;21.45;5.18;;;;;;;10.16;100.00;101729.66;5352213;27;20510;-81
2023/01/05 03:08:39;;;;;;;27.90;4.90;;;;;;;10.15;100.00;101727.94;5355058;27;20038;-82
2023/01/05 03:14:13;;;;;;;27.58;5.53;;;;;;;10.25;100.00;101723.59;5355445;27;20031;-83
2023/01/05 03:16:48;;;;;;;27.50;5.00;;;;;;;10.27;100.00;101734.16;5351553;27;20035;-82
2023/01/05 03:19:35;;;;;;;33.37;6.07;;;;;;;10.25;100.00;101734.25;5346773;27;20043;-82
2023/01/05 03:37:11;;;;;;;27.33;5.93;;;;;;;10.37;100.00;101738.69;5332587;27;20040;-81
2023/01/05 03:39:45;;;;;;;27.55;5.18;;;;;;;10.31;100.00;101735.59;5340088;27;20425;-82
2023/01/05 03:42:18;;;;;;;25.13;5.50;;;;;;;10.29;100.00;101735.75;5331760;27;20038;-82
2023/01/05 03:44:49;;;;;;;23.75;5.45;;;;;;;10.29;100.00;101734.88;5332224;27;20028;-82
2023/01/05 03:47:22;;;;;;;37.65;5.60;;;;;;;10.32;100.00;101742.69;5334880;27;20027;-82
2023/01/05 03:49:54;;;;;;;36.35;7.10;;;;;;;10.28;100.00;101749.19;5314348;27;20067;-82
2023/01/05 03:52:25;;;;;;;27.83;5.07;;;;;;;10.32;100.00;101740.00;5337285;27;20488;-82
2023/01/05 03:54:56;;;;;;;30.80;5.40;;;;;;;10.32;100.00;101748.84;5332615;27;20058;-82
2023/01/05 03:57:27;;;;;;;24.77;5.40;;;;;;;10.35;100.00;101750.44;5332601;27;20024;-82
2023/01/05 03:59:59;;;;;;;29.40;4.60;;;;;;;10.36;100.00;101745.00;5335004;27;36235;-82
2023/01/05 04:02:30;;;;;;;34.33;5.47;;;;;;;10.38;100.00;101747.53;5333606;27;20085;-82
2023/01/05 04:05:01;;;;;;;29.95;5.72;;;;;;;10.41;100.00;101747.28;5335807;27;20043;-83
2023/01/05 04:07:33;;;;;;;26.50;5.57;;;;;;;10.45;100.00;101753.22;5341105;27;20027;-83
2023/01/05 04:10:05;;;;;;;23.80;6.05;;;;;;;10.44;100.00;101749.72;5330655;27;24549;-83
2023/01/05 04:12:36;;;;;;;26.67;5.60;;;;;;;10.44;100.00;101752.38;5335849;27;20062;-82
2023/01/05 04:15:08;;;;;;;32.97;5.90;;;;;;;10.45;100.00;101754.09;5329460;27;21106;-81
2023/01/05 04:17:39;;;;;;;29.52;6.05;;;;;;;10.42;100.00;101745.50;5336895;27;20024;-82
2023/01/05 04:20:11;;;;;;;24.38;5.90;;;;;;;10.48;100.00;101753.00;5332426;27;20047;-83
2023/01/05 04:22:42;;;;;;;31.45;5.55;;;;;;;10.43;100.00;101749.84;5332998;27;20076;-82
2023/01/05 04:25:13;;;;;;;26.90;6.10;;;;;;;10.45;100.00;101775.44;5331392;27;20075;-82
2023/01/05 04:27:45;;;;;;;30.50;6.72;;;;;;;10.48;100.00;101751.16;5332015;27;20480;-82
2023/01/05 04:30:17;;;;;;;34.95;5.93;;;;;;;10.47;100.00;101756.66;5326432;27;20142;-82
2023/01/05 04:32:49;;;;;;;28.55;5.32;;;;;;;10.47;100.00;101749.50;5336370;27;20049;-82
2023/01/05 04:35:20;;;;;;;26.10;5.88;;;;;;;10.48;100.00;101750.34;5335501;27;20398;-82
2023/01/05 04:37:51;;;;;;;35.67;5.93;;;;;;;10.48;100.00;101751.16;5332245;27;20061;-83
2023/01/05 04:40:23;;;;;;;33.00;5.90;;;;;;;10.43;100.00;101757.84;5333002;27;20051;-82
2023/01/05 04:42:54;;;;;;;31.15;6.47;;;;;;;10.40;100.00;101743.78;5332109;27;20089;-82
2023/01/05 04:45:25;;;;;;;26.77;5.70;;;;;;;10.45;100.00;101751.44;5332215;27;20515;-82
2023/01/05 04:47:57;;;;;;;35.72;6.63;;;;;;;10.50;100.00;101748.38;5331258;27;20058;-82
2023/01/05 04:50:28;;;;;;;28.63;6.13;;;;;;;10.48;100.00;101759.16;5328395;27;20047;-82
2023/01/05 04:52:59;;;;;;;29.83;6.13;;;;;;;10.48;100.00;101745.84;5316339;27;20032;-82
2023/01/05 04:55:30;;;;;;;31.70;6.85;;;;;;;10.49;100.00;101744.88;5327747;27;20023;-82
2023/01/05 04:58:02;;;;;;;35.28;7.18;;;;;;;10.51;100.00;101742.94;5335140;27;20034;-82
2023/01/05 05:00:33;;;;;;;27.33;5.10;;;;;;;10.51;100.00;101744.75;5331718;27;20024;-83
2023/01/05 05:03:05;;;;;;;32.78;5.53;;;;;;;10.49;100.00;101768.88;5334225;27;20023;-83
2023/01/05 05:05:36;;;;;;;32.88;6.28;;;;;;;10.50;100.00;101759.94;5333362;27;20496;-83
2023/01/05 05:08:08;;;;;;;29.45;5.43;;;;;;;10.54;100.00;101761.38;5333826;27;20110;-83
2023/01/05 05:10:39;;;;;;;31.08;5.93;;;;;;;10.55;100.00;101762.22;5334060;27;20023;-82
2023/01/05 05:13:10;;;;;;;28.77;4.88;;;;;;;10.57;100.00;101773.63;5342361;27;20056;-82
2023/01/05 05:15:43;;;;;;;31.48;6.22;;;;;;;10.57;100.00;101773.63;5351541;27;20030;-82
2023/01/05 05:18:14;;;;;;;28.38;5.28;;;;;;;10.55;100.00;101768.44;5341589;27;20020;-82
2023/01/05 05:20:48;;;;;;;26.73;5.20;;;;;;;10.58;100.00;101775.31;5332804;27;20043;-82
2023/01/05 05:23:20;;;;;;;30.27;6.05;;;;;;;10.56;100.00;101785.28;5334847;27;20036;-83
2023/01/05 05:25:52;;;;;;;26.15;5.72;;;;;;;10.60;100.00;101782.22;5332936;27;20589;-82
2023/01/05 05:28:26;;;;;;;32.85;7.10;;;;;;;10.60;100.00;101787.56;5332986;27;20020;-82
2023/01/05 05:30:58;;;;;;;32.05;7.03;;;;;;;10.56;100.00;101786.09;5333760;27;20034;-81
2023/01/05 05:33:29;;;;;;;37.58;7.07;;;;;;;10.55;100.00;101786.22;5334724;27;20028;-82
2023/01/05 05:36:01;;;;;;;35.22;7.40;;;;;;;10.51;100.00;101777.63;5332055;27;20429;-82
2023/01/05 05:38:32;;;;;;;35.08;7.40;;;;;;;10.51;100.00;101795.44;5329222;27;20110;-82
2023/01/05 05:41:03;;;;;;;39.38;7.68;;;;;;;10.50;100.00;101791.94;5332683;27;20384;-82
2023/01/05 05:43:35;;;;;;;34.45;5.38;;;;;;;10.49;100.00;101800.91;5312656;27;20210;-82
2023/01/05 05:46:06;;;;;;;37.15;4.90;;;;;;;10.49;100.00;101800.91;5332423;27;20036;-82
2023/01/05 05:48:38;;;;;;;32.80;6.38;;;;;;;10.51;100.00;101809.63;5340536;27;20121;-82
2023/01/05 05:51:09;;;;;;;30.42;6.80;;;;;;;10.50;100.00;101809.75;5334463;27;20024;-81
2023/01/05 05:53:40;;;;;;;32.15;6.47;;;;;;;10.51;100.00;101808.78;5340828;27;20073;-83
2023/01/05 05:56:11;;;;;;;37.45;6.80;;;;;;;10.52;100.00;101802.50;5330963;27;20034;-82
2023/01/05 05:58:43;;;;;;;37.45;7.68;;;;;;;10.50;100.00;101801.72;5339591;27;20027;-82
2023/01/05 06:01:14;;;;;;;36.20;6.78;;;;;;;10.47;100.00;101816.19;5336902;27;20032;-82
2023/01/05 06:03:45;;;;;;;30.17;5.40;;;;;;;10.49;100.00;101810.72;5337935;27;20030;-82
2023/01/05 06:06:17;;;;;;;36.10;7.50;;;;;;;10.45;100.00;101815.44;5332574;27;20044;-81
2023/01/05 06:08:48;;;;;;;39.45;6.72;;;;;;;10.47;100.00;101844.69;5333998;27;20347;-82
2023/01/05 06:11:19;;;;;;;37.83;6.82;;;;;;;10.46;100.00;101842.97;5337828;27;20360;-83
2023/01/05 06:13:51;;;;;;;37.28;6.72;;;;;;;10.44;100.00;101840.41;5335683;27;20020;-82
2023/01/05 06:16:22;;;;;;;29.13;5.68;;;;;;;10.41;100.00;101824.63;5320506;27;20024;-83
2023/01/05 06:18:53;;;;;;;35.35;6.82;;;;;;;10.42;100.00;101828.16;5340113;27;20038;-82
2023/01/05 06:21:25;;;;;;;33.63;6.38;;;;;;;10.38;100.00;101843.56;5340957;27;20078;-82
2023/01/05 06:23:56;;;;;;;36.83;7.30;;;;;;;10.42;100.00;101852.19;5335634;27;20146;-82
2023/01/05 06:26:27;;;;;;;31.30;5.95;;;;;;;10.39;100.00;101854.09;5337609;27;20081;-82
2023/01/05 06:28:59;;;;;;;37.03;7.93;;;;;;;10.42;100.00;101860.19;5335697;27;20031;-82
2023/01/05 06:31:30;;;;;;;32.47;6.03;;;;;;;10.39;100.00;101856.75;5337135;27;20381;-82
2023/01/05 06:34:01;;;;;;;42.13;8.15;;;;;;;10.39;100.00;101851.41;5341073;27;20034;-82
2023/01/05 06:36:32;;;;;;;37.58;7.40;;;;;;;10.37;100.00;101860.50;5339405;27;20089;-82
2023/01/05 06:39:04;;;;;;;35.22;6.90;;;;;;;10.33;100.00;101856.38;5334150;27;20041;-83
2023/01/05 06:41:35;;;;;;;36.70;8.30;;;;;;;10.36;100.00;101861.47;5339435;27;20119;-82
2023/01/05 06:44:07;;;;;;;41.38;6.65;;;;;;;10.34;100.00;101863.41;5343903;27;20036;-83
2023/01/05 06:46:39;;;;;;;32.50;6.57;;;;;;;10.36;100.00;101878.34;5339614;27;20036;-82
2023/01/05 06:49:11;;;;;;;33.95;7.53;;;;;;;10.30;100.00;101880.59;5342978;27;20028;-83
2023/01/05 06:51:42;;;;;;;40.72;7.75;;;;;;;10.34;100.00;101874.94;5314869;27;20541;-82
2023/01/05 06:54:13;;;;;;;38.88;7.47;;;;;;;10.32;100.00;101884.84;5338506;27;20035;-82
2023/01/05 06:56:45;;;;;;;36.70;6.65;;;;;;;10.32;100.00;101887.53;5341143;27;20857;-83
2023/01/05 06:59:16;;;;;;;44.90;7.72;;;;;;;10.30;100.00;101892.09;5339210;27;20082;-82
2023/01/05 07:01:47;;;;;;;35.45;6.90;;;;;;;10.27;100.00;101894.13;5336663;27;20047;-82
2023/01/05 07:04:19;;;;;;;31.83;6.20;;;;;;;10.26;100.00;101884.44;5336903;27;20032;-82
2023/01/05 07:06:50;;;;;;;40.63;7.90;;;;;;;10.25;100.00;101891.59;5339758;27;20085;-82
2023/01/05 07:09:21;;;;;;;40.47;6.88;;;;;;;10.23;100.00;101894.34;5339586;27;20068;-80
2023/01/05 07:11:53;;;;;;;39.72;6.47;;;;;;;10.25;100.00;101896.06;5318442;27;20026;-83
2023/01/05 07:14:24;;;;;;;40.05;7.35;;;;;;;10.22;100.00;101886.50;5333134;27;20465;-82
2023/01/05 07:16:55;;;;;;;36.00;7.05;;;;;;;10.22;100.00;101895.34;5337307;27;20020;-82
2023/01/05 07:19:27;;;;;;;38.53;7.32;;;;;;;10.22;100.00;101873.16;5336169;27;20043;-82
2023/01/05 07:21:58;;;;;;;35.05;8.00;;;;;;;10.16;100.00;101893.13;5342629;27;20392;-82
2023/01/05 07:24:29;;;;;;;42.67;8.05;;;;;;;10.18;100.00;101885.84;5347639;27;20023;-82
2023/01/05 07:27:01;;;;;;;41.35;7.63;;;;;;;10.16;100.00;101893.13;5347046;27;20376;-81
2023/01/05 07:29:33;;;;;;;39.47;7.60;;;;;;;10.15;100.00;101901.22;5330335;27;20529;-80
2023/01/05 07:32:04;;;;;;;45.83;8.30;;;;;;;10.14;100.00;101908.38;5340310;27;20103;-82
2023/01/05 07:34:36;;;;;;;43.83;7.03;;;;;;;10.17;100.00;101912.66;5340579;27;20055;-82
2023/01/05 07:37:07;;;;;;;31.52;6.30;;;;;;;10.14;100.00;101910.22;5346555;27;20019;-82
2023/01/05 07:39:38;;;;;;;44.45;6.95;;;;;;;10.10;100.00;101914.91;5334248;27;20031;-82
2023/01/05 07:42:10;;;;;;;39.33;6.43;;;;;;;10.12;100.00;101918.31;5314350;27;20031;-82
2023/01/05 07:44:41;;;;;;;48.85;8.70;;;;;;;10.11;100.00;101921.09;5346958;27;20166;-82
2023/01/05 07:47:12;;;;;;;51.90;7.97;;;;;;;10.11;100.00;101915.75;5348160;27;20374;-81
2023/01/05 07:49:45;;;;;;;42.88;7.10;;;;;;;10.13;100.00;101927.16;5333732;27;20032;-82
2023/01/05 07:52:16;;;;;;;46.72;6.82;;;;;;;10.14;100.00;101923.53;5342595;27;20095;-82
2023/01/05 07:54:47;;;;;;;49.17;8.73;;;;;;;10.10;100.00;101928.25;5318791;27;20114;-82
2023/01/05 07:57:19;;;;;;;41.08;8.43;;;;;;;10.06;100.00;101920.56;5346156;27;20046;-82
2023/01/05 07:59:50;;;;;;;45.75;7.07;;;;;;;10.05;100.00;101927.72;5346262;27;20032;-82
2023/01/05 08:02:22;;;;;;;42.25;8.85;;;;;;;10.09;100.00;101931.84;5325961;28;20047;-82
2023/01/05 08:04:53;;;;;;;45.47;8.38;;;;;;;10.10;100.00;101936.25;5325976;28;20040;-82
2023/01/05 08:07:25;;;;;;;30.33;7.82;;;;;;;10.14;100.00;101934.19;5347009;27;20061;-82
2023/01/05 08:15:36;;;;;;;51.03;9.30;;;;;;;10.19;100.00;101942.72;5347612;27;20032;-82
2023/01/05 08:18:07;;;;;;;34.72;7.10;;;;;;;10.22;100.00;101945.16;5347794;27;20444;-82
2023/01/05 08:20:39;;;;;;;37.55;7.03;;;;;;;10.27;100.00;101955.47;5346836;27;20044;-82
2023/01/05 08:23:10;;;;;;;52.53;9.23;;;;;;;10.28;100.00;101955.34;5347134;27;20031;-82
2023/01/05 08:25:41;;;;;;;37.40;7.30;;;;;;;10.30;100.00;101957.91;5345637;27;33561;-82
2023/01/05 08:28:13;;;;;;;44.40;8.30;;;;;;;10.30;100.00;101950.75;5347802;27;20487;-82
2023/01/05 08:30:44;;;;;;;40.85;7.22;;;;;;;10.35;100.00;101961.13;5347251;27;20044;-82
2023/01/05 08:33:16;;;;;;;40.85;7.03;;;;;;;10.37;100.00;101972.53;5347071;27;20107;-82
2023/01/05 08:35:47;;;;;;;37.65;6.50;;;;;;;10.38;100.00;101966.25;5347496;27;20027;-82
2023/01/05 08:38:21;;;;;;;34.53;7.35;;;;;;;10.40;100.00;101972.31;5345921;27;20028;-82
2023/01/05 08:40:52;;;;;;;39.28;8.18;;;;;;;10.40;100.00;101967.81;5345931;27;20701;-82
2023/01/05 08:43:23;;;;;;;55.65;8.93;;;;;;;10.37;100.00;101973.38;5347077;27;20027;-82
2023/01/05 08:45:55;;;;;;;35.50;8.57;;;;;;;10.42;100.00;101972.19;5346776;27;20023;-82
2023/01/05 08:48:26;;;;;;;37.72;7.53;;;;;;;10.43;100.00;101987.22;5346961;27;20575;-82
2023/01/05 08:51:06;;;;;;;40.08;7.82;;;;;;;10.44;100.00;102008.44;5345242;27;27190;-82
2023/01/05 08:53:37;;;;;;;36.42;7.72;;;;;;;10.47;100.00;101994.06;5346159;27;20115;-82
2023/01/05 08:56:09;;;;;;;34.72;8.18;;;;;;;10.48;100.00;102004.56;5346121;27;20098;-83
2023/01/05 08:58:41;;;;;;;38.78;7.40;;;;;;;10.59;100.00;102001.13;5328146;27;20198;-82
2023/01/05 09:01:15;;;;;;;41.10;6.88;;;;;;;10.60;100.00;102010.81;5332667;27;20148;-83
2023/01/05 09:03:46;;;;;;;36.40;8.02;;;;;;;10.65;100.00;102000.66;5346847;27;20150;-82
2023/01/05 09:06:18;;;;;;;42.05;6.90;;;;;;;10.69;100.00;101998.63;5345944;27;20032;-82
2023/01/05 09:08:49;;;;;;;39.00;7.05;;;;;;;10.79;100.00;102007.63;5346199;27;20027;-82
2023/01/05 09:11:23;;;;;;;40.25;8.02;;;;;;;10.85;100.00;101987.63;5345611;27;20031;-82
2023/01/05 09:13:57;;;;;;;39.45;7.85;;;;;;;10.91;100.00;102006.72;5346217;27;20447;-81
2023/01/05 09:16:33;;;;;;;38.30;6.00;;;;;;;11.00;100.00;102012.34;5345819;27;20084;-81
2023/01/05 09:19:05;;;;;;;43.20;7.10;;;;;;;11.00;100.00;102012.34;5326805;27;20052;-81
2023/01/05 09:21:39;;;;;;;34.78;7.72;;;;;;;11.03;100.00;102007.59;5346111;27;20034;-81
2023/01/05 09:24:11;;;;;;;41.28;7.85;;;;;;;11.09;100.00;102009.78;5344893;27;20098;-81
2023/01/05 09:26:43;;;;;;;39.80;6.45;;;;;;;11.12;100.00;102016.72;5345904;27;20111;-82
2023/01/05 09:29:15;;;;;;;36.88;6.63;;;;;;;11.10;100.00;102018.69;5346596;27;20034;-81
2023/01/05 09:31:46;;;;;;;38.85;7.88;;;;;;;11.13;100.00;102026.44;5345938;27;20015;-81
2023/01/05 09:34:18;;;;;;;37.17;7.85;;;;;;;11.25;100.00;102035.34;5346186;27;20091;-81
2023/01/05 09:36:49;;;;;;;38.83;7.05;;;;;;;11.28;100.00;102030.59;5327211;27;20152;-81
2023/01/05 09:39:20;;;;;;;40.80;9.13;;;;;;;11.35;100.00;102042.50;5345239;27;20024;-81
2023/01/05 09:41:55;;;;;;;39.60;7.18;;;;;;;11.40;100.00;102041.31;5345884;27;20035;-81
2023/01/05 09:44:38;;;;;;;36.90;7.07;;;;;;;11.45;100.00;102048.00;5327185;27;20032;-81
2023/01/05 09:47:36;;;;;;;46.53;8.50;;;;;;;11.41;100.00;102046.53;5345615;27;20032;-81
2023/01/05 09:50:18;;;;;;;35.80;6.43;;;;;;;11.41;100.00;102051.88;5325930;27;20024;-81
2023/01/05 09:52:53;;;;;;;36.70;7.63;;;;;;;11.49;100.00;102060.16;5345235;27;20077;-81
2023/01/05 09:55:29;;;;;;;35.40;7.65;;;;;;;11.41;100.00;102049.19;5343997;27;20464;-82
2023/01/05 09:58:22;;;;;;;45.78;8.25;;;;;;;11.59;100.00;102049.63;5345261;27;20069;-81
2023/01/05 10:01:03;;;;;;;37.00;8.00;;;;;;;11.63;100.00;102053.75;5334819;27;20095;-81
2023/01/05 10:03:39;;;;;;;34.47;7.10;;;;;;;11.57;100.00;102053.34;5335345;27;20032;-81
2023/01/05 10:06:14;;;;;;;34.25;6.72;;;;;;;11.47;100.00;102051.41;5344839;27;20036;-82
2023/01/05 10:08:50;;;;;;;39.85;9.63;;;;;;;11.47;100.00;102061.25;5345583;27;20124;-82
2023/01/05 10:14:39;;;;;;;33.33;6.63;;;;;;;11.34;100.00;102067.53;5347262;27;20489;-81
2023/01/05 10:17:14;;;;;;;38.45;8.07;;;;;;;11.20;100.00;102064.22;5346576;27;20024;-81
2023/01/05 10:19:46;;;;;;;37.03;7.90;;;;;;;11.16;100.00;102063.59;5349212;27;20047;-82
2023/01/05 10:22:39;;;;;;;36.97;7.28;;;;;;;11.26;100.00;102069.94;5360968;27;20020;-81
2023/01/05 10:25:28;;;;;;;29.27;7.47;;;;;;;11.29;100.00;102069.72;5360400;27;20055;-81
2023/01/05 10:28:38;;;;;;;33.67;7.25;;;;;;;11.33;100.00;102081.00;5362473;27;20041;-80
2023/01/05 10:31:23;;;;;;;38.20;7.72;;;;;;;11.52;100.00;102083.97;5352640;27;20028;-80
2023/01/05 10:34:10;;;;;;;42.00;8.43;;;;;;;11.57;100.00;102080.94;5353093;27;20442;-81
2023/01/05 10:37:20;;;;;;;34.08;6.32;;;;;;;11.59;100.00;102065.66;5355051;27;20098;-82
2023/01/05 10:39:57;;;;;;;40.67;7.30;;;;;;;11.69;100.00;102082.69;5337584;27;20028;-83
2023/01/05 10:42:36;;;;;;;38.33;7.53;;;;;;;11.73;100.00;102078.78;5350126;27;20424;-82
2023/01/05 10:45:14;;;;;;;33.78;6.30;;;;;;;11.60;100.00;102083.38;5349604;27;20500;-82
2023/01/05 10:47:47;;;;;;;37.42;7.18;;;;;;;11.54;100.00;102070.50;5352540;27;20016;-82
2023/01/05 10:50:31;;;;;;;31.27;7.15;;;;;;;11.50;100.00;102082.38;5363751;27;20040;-81
2023/01/05 10:53:11;;;;;;;44.95;7.55;;;;;;;11.50;100.00;102082.38;5366061;27;20028;-84
2023/01/05 10:55:59;;;;;;;38.67;7.82;;;;;;;11.46;100.00;102079.09;5367879;27;20612;-82
2023/01/05 10:58:39;;;;;;;42.88;8.68;;;;;;;11.52;100.00;102080.47;5366140;27;20012;-82
2023/01/05 11:01:17;;;;;;;38.55;8.25;;;;;;;11.49;100.00;102086.03;5365832;27;20058;-82
2023/01/05 11:03:53;;;;;;;36.60;7.63;;;;;;;11.60;100.00;102083.38;5365549;27;20030;-81
2023/01/05 11:06:29;;;;;;;34.65;7.28;;;;;;;11.57;100.00;102083.63;5357534;27;20151;-82
2023/01/05 11:09:12;;;;;;;39.43;6.97;;;;;;;11.57;100.00;102090.78;5343486;27;20570;-83
2023/01/05 11:11:52;;;;;;;36.80;6.70;;;;;;;11.58;100.00;102081.78;5361112;27;20265;-82
2023/01/05 11:14:27;;;;;;;42.42;8.65;;;;;;;11.56;100.00;102089.09;5359133;27;20032;-82
2023/01/05 11:17:05;;;;;;;35.20;7.68;;;;;;;11.63;100.00;102088.47;5360361;27;20035;-82
2023/01/05 11:19:42;;;;;;;35.08;8.77;;;;;;;11.68;100.00;102094.31;5361575;27;20383;-82
2023/01/05 11:22:34;;;;;;;43.40;7.55;;;;;;;11.81;100.00;102088.00;5361018;27;20031;-81
2023/01/05 11:25:26;;;;;;;38.08;8.77;;;;;;;11.81;100.00;102093.38;5350597;27;20027;-82
2023/01/05 11:28:11;;;;;;;36.03;7.53;;;;;;;11.80;100.00;102088.97;5346212;27;20032;-82
2023/01/05 11:31:02;;;;;;;39.03;7.95;;;;;;;11.85;100.00;102084.13;5350659;27;20039;-82
2023/01/05 11:33:38;;;;;;;37.75;7.65;;;;;;;11.77;100.00;102082.06;5348530;27;20016;-82
2023/01/05 11:36:13;;;;;;;34.63;7.75;;;;;;;11.80;100.00;102076.47;5347836;27;20541;-82
2023/01/05 11:38:52;;;;;;;44.50;9.23;;;;;;;11.93;100.00;102080.91;5347576;27;20023;-82
2023/01/05 11:41:24;;;;;;;35.45;7.28;;;;;;;11.72;100.00;102079.72;5346588;27;20028;-82
2023/01/05 11:43:59;;;;;;;34.80;6.78;;;;;;;11.77;100.00;102071.38;5348217;27;20020;-82
2023/01/05 11:46:42;;;;;;;38.88;7.53;;;;;;;11.88;100.00;102070.53;5346230;27;20039;-82
2023/01/05 11:49:18;;;;;;;28.95;7.63;;;;;;;11.90;100.00;102066.81;5347803;27;20027;-82
2023/01/05 11:51:49;;;;;;;34.33;6.87;;;;;;;12.08;100.00;102077.00;5347314;27;20456;-82
2023/01/05 11:54:34;;;;;;;39.13;7.38;;;;;;;12.00;100.00;102066.06;5348192;27;20110;-82
2023/01/05 11:57:13;;;;;;;32.50;6.97;;;;;;;11.84;100.00;102063.72;5345762;27;20059;-82
2023/01/05 11:59:45;;;;;;;38.05;6.55;;;;;;;11.65;100.00;102061.63;5347187;27;20032;-82
2023/01/05 12:02:48;;;;;;;33.38;6.70;;;;;;;11.75;100.00;102057.28;5347258;27;20027;-82
2023/01/05 12:05:31;;;;;;;38.85;7.70;;;;;;;11.75;100.00;102061.78;5346865;27;20034;-82
2023/01/05 12:08:14;;;;;;;38.85;8.30;;;;;;;11.70;100.00;102062.97;5347501;27;20371;-82
2023/01/05 12:11:04;;;;;;;29.35;6.53;;;;;;;11.82;100.00;102060.31;5345978;27;20498;-82
2023/01/05 12:14:05;;;;;;;34.45;6.55;;;;;;;11.83;100.00;102059.34;5346616;27;20325;-82
2023/01/05 12:16:44;;;;;;;36.53;7.00;;;;;;;11.70;100.00;102065.66;5328168;27;20023;-82
2023/01/05 12:19:37;;;;;;;34.05;7.47;;;;;;;11.64;100.00;102063.47;5346689;27;20044;-82
2023/01/05 12:22:11;;;;;;;37.00;7.82;;;;;;;11.49;100.00;102068.16;5344515;27;20037;-82
2023/01/05 12:25:04;;;;;;;31.08;6.13;;;;;;;11.44;100.00;102058.81;5307444;28;20040;-82